Hughenden Airport

Airport
ICAO code: 
YHUG
IATA Code: 
HGD
Summary
ICAO Region: 
APAC
Territory: 
Location: 
Hughenden, Queensland
Serving: 
Hughenden
Elevation: 
1043 ft
Coordinates: 
Aerial View: 
20° 48' 54" S, 144° 13' 30" E
Metar
Observation
YHUG 050500Z AUTO 10010KT 9999 // NCD 37/15 Q1006
Station
Hughenden Airport
Date/Time
2021-12-05 05:00:00
Wind direction
100°
Wind speed
10 kts
Lowest cloud amount
no clouds detected
Temperature
37°C
Dew point
15°C
Humidity
27%
QNH
1006 hPa
Weather condition
n/a

Runways

Designator Length Width Surface Rops
6/24 930 18 GVL No/No
12/30 1644 30 ASP No/No
Airport map: 
Aerial View: 

SKYbrary Partners:

Safety knowledge contributed by: